sensor_id;sensor_type;location;lat;lon;timestamp;temperature;humidity
4354;DHT22;11018;51.258;6.806;2024-02-21T00:00:05;10.30;50.50
4354;DHT22;11018;51.258;6.806;2024-02-21T00:02:30;10.20;51.60
4354;DHT22;11018;51.258;6.806;2024-02-21T00:04:56;10.30;50.70
4354;DHT22;11018;51.258;6.806;2024-02-21T00:07:22;10.30;50.60
4354;DHT22;11018;51.258;6.806;2024-02-21T00:09:47;10.20;50.90
4354;DHT22;11018;51.258;6.806;2024-02-21T00:12:13;10.20;51.30
4354;DHT22;11018;51.258;6.806;2024-02-21T00:14:42;10.20;51.10
4354;DHT22;11018;51.258;6.806;2024-02-21T00:17:07;10.30;51.00
4354;DHT22;11018;51.258;6.806;2024-02-21T00:19:34;10.30;50.90
4354;DHT22;11018;51.258;6.806;2024-02-21T00:21:59;10.30;50.90
4354;DHT22;11018;51.258;6.806;2024-02-21T00:24:25;10.30;51.10
4354;DHT22;11018;51.258;6.806;2024-02-21T00:26:50;10.30;51.10
4354;DHT22;11018;51.258;6.806;2024-02-21T00:29:16;10.30;51.10
4354;DHT22;11018;51.258;6.806;2024-02-21T00:31:41;10.30;51.50
4354;DHT22;11018;51.258;6.806;2024-02-21T00:34:07;10.20;51.60
4354;DHT22;11018;51.258;6.806;2024-02-21T00:36:33;10.20;52.10
4354;DHT22;11018;51.258;6.806;2024-02-21T00:38:58;10.20;51.80
4354;DHT22;11018;51.258;6.806;2024-02-21T00:41:24;10.20;52.10
4354;DHT22;11018;51.258;6.806;2024-02-21T00:43:49;10.20;52.70
4354;DHT22;11018;51.258;6.806;2024-02-21T00:46:15;10.20;52.50
4354;DHT22;11018;51.258;6.806;2024-02-21T00:48:41;10.10;53.10
4354;DHT22;11018;51.258;6.806;2024-02-21T00:51:06;10.30;52.70
4354;DHT22;11018;51.258;6.806;2024-02-21T00:53:32;10.20;52.60
4354;DHT22;11018;51.258;6.806;2024-02-21T00:55:57;10.10;53.30
4354;DHT22;11018;51.258;6.806;2024-02-21T00:58:23;10.10;53.70
4354;DHT22;11018;51.258;6.806;2024-02-21T01:00:49;10.10;54.40
4354;DHT22;11018;51.258;6.806;2024-02-21T01:03:14;10.10;53.60
4354;DHT22;11018;51.258;6.806;2024-02-21T01:05:40;10.20;53.70
4354;DHT22;11018;51.258;6.806;2024-02-21T01:08:06;10.20;53.50
4354;DHT22;11018;51.258;6.806;2024-02-21T01:10:31;10.20;53.50
4354;DHT22;11018;51.258;6.806;2024-02-21T01:12:57;10.10;54.30
4354;DHT22;11018;51.258;6.806;2024-02-21T01:15:23;10.10;54.20
4354;DHT22;11018;51.258;6.806;2024-02-21T01:17:48;10.20;53.60
4354;DHT22;11018;51.258;6.806;2024-02-21T01:20:16;10.20;53.70
4354;DHT22;11018;51.258;6.806;2024-02-21T01:22:42;10.20;53.80
4354;DHT22;11018;51.258;6.806;2024-02-21T01:25:08;10.10;54.20
4354;DHT22;11018;51.258;6.806;2024-02-21T01:27:33;10.10;54.30
4354;DHT22;11018;51.258;6.806;2024-02-21T01:29:59;10.30;53.80
4354;DHT22;11018;51.258;6.806;2024-02-21T01:32:24;10.20;53.80
4354;DHT22;11018;51.258;6.806;2024-02-21T01:34:51;10.20;53.80
4354;DHT22;11018;51.258;6.806;2024-02-21T01:37:16;10.20;53.80
4354;DHT22;11018;51.258;6.806;2024-02-21T01:39:42;10.20;54.30
4354;DHT22;11018;51.258;6.806;2024-02-21T01:42:07;10.20;54.30
4354;DHT22;11018;51.258;6.806;2024-02-21T01:44:34;10.20;53.40
4354;DHT22;11018;51.258;6.806;2024-02-21T01:47:00;10.20;53.60
4354;DHT22;11018;51.258;6.806;2024-02-21T01:49:26;10.20;53.80
4354;DHT22;11018;51.258;6.806;2024-02-21T01:51:52;10.20;54.00
4354;DHT22;11018;51.258;6.806;2024-02-21T01:54:18;10.20;54.10
4354;DHT22;11018;51.258;6.806;2024-02-21T01:56:45;10.20;54.00
4354;DHT22;11018;51.258;6.806;2024-02-21T01:59:12;10.20;54.20
4354;DHT22;11018;51.258;6.806;2024-02-21T02:01:39;10.10;54.80
4354;DHT22;11018;51.258;6.806;2024-02-21T02:04:05;10.20;54.30
4354;DHT22;11018;51.258;6.806;2024-02-21T02:06:31;10.20;54.10
4354;DHT22;11018;51.258;6.806;2024-02-21T02:08:57;10.20;54.00
4354;DHT22;11018;51.258;6.806;2024-02-21T02:11:22;10.20;54.30
4354;DHT22;11018;51.258;6.806;2024-02-21T02:13:48;10.20;54.30
4354;DHT22;11018;51.258;6.806;2024-02-21T02:16:14;10.10;54.30
4354;DHT22;11018;51.258;6.806;2024-02-21T02:18:39;10.10;54.20
4354;DHT22;11018;51.258;6.806;2024-02-21T02:21:21;10.10;54.50
4354;DHT22;11018;51.258;6.806;2024-02-21T02:23:48;10.10;54.50
4354;DHT22;11018;51.258;6.806;2024-02-21T02:26:14;10.10;54.60
4354;DHT22;11018;51.258;6.806;2024-02-21T02:28:39;10.00;54.90
4354;DHT22;11018;51.258;6.806;2024-02-21T02:31:05;10.00;55.40
4354;DHT22;11018;51.258;6.806;2024-02-21T02:33:31;10.10;55.00
4354;DHT22;11018;51.258;6.806;2024-02-21T02:35:56;10.10;54.60
4354;DHT22;11018;51.258;6.806;2024-02-21T02:38:24;10.10;54.40
4354;DHT22;11018;51.258;6.806;2024-02-21T02:40:49;10.10;54.30
4354;DHT22;11018;51.258;6.806;2024-02-21T02:43:15;10.10;54.00
4354;DHT22;11018;51.258;6.806;2024-02-21T02:45:40;10.10;54.20
4354;DHT22;11018;51.258;6.806;2024-02-21T02:48:06;10.20;53.60
4354;DHT22;11018;51.258;6.806;2024-02-21T02:50:32;10.20;53.20
4354;DHT22;11018;51.258;6.806;2024-02-21T02:52:58;10.20;53.20
4354;DHT22;11018;51.258;6.806;2024-02-21T02:55:23;10.20;53.60
4354;DHT22;11018;51.258;6.806;2024-02-21T02:57:49;10.20;53.40
4354;DHT22;11018;51.258;6.806;2024-02-21T03:00:15;10.20;53.30
4354;DHT22;11018;51.258;6.806;2024-02-21T03:02:43;10.10;53.40
4354;DHT22;11018;51.258;6.806;2024-02-21T03:05:26;10.20;53.00
4354;DHT22;11018;51.258;6.806;2024-02-21T03:07:52;10.20;53.30
4354;DHT22;11018;51.258;6.806;2024-02-21T03:10:17;10.10;53.20
4354;DHT22;11018;51.258;6.806;2024-02-21T03:12:43;10.10;53.40
4354;DHT22;11018;51.258;6.806;2024-02-21T03:15:09;10.20;53.20
4354;DHT22;11018;51.258;6.806;2024-02-21T03:17:34;10.20;53.20
4354;DHT22;11018;51.258;6.806;2024-02-21T03:20:02;10.10;53.20
4354;DHT22;11018;51.258;6.806;2024-02-21T03:22:30;10.10;53.20
4354;DHT22;11018;51.258;6.806;2024-02-21T03:24:56;10.10;53.50
4354;DHT22;11018;51.258;6.806;2024-02-21T03:27:21;10.10;53.50
4354;DHT22;11018;51.258;6.806;2024-02-21T03:29:47;10.00;53.80
4354;DHT22;11018;51.258;6.806;2024-02-21T03:32:13;10.00;53.50
4354;DHT22;11018;51.258;6.806;2024-02-21T03:34:38;10.10;53.30
4354;DHT22;11018;51.258;6.806;2024-02-21T03:37:04;10.10;53.30
4354;DHT22;11018;51.258;6.806;2024-02-21T03:39:32;10.10;53.00
4354;DHT22;11018;51.258;6.806;2024-02-21T03:41:58;10.20;52.80
4354;DHT22;11018;51.258;6.806;2024-02-21T03:44:26;10.10;52.60
4354;DHT22;11018;51.258;6.806;2024-02-21T03:46:52;10.10;52.90
4354;DHT22;11018;51.258;6.806;2024-02-21T03:49:18;10.10;53.10
4354;DHT22;11018;51.258;6.806;2024-02-21T03:51:43;10.10;53.00
4354;DHT22;11018;51.258;6.806;2024-02-21T03:54:09;10.10;52.80
4354;DHT22;11018;51.258;6.806;2024-02-21T03:56:38;10.10;53.00
4354;DHT22;11018;51.258;6.806;2024-02-21T03:59:06;10.10;53.10
4354;DHT22;11018;51.258;6.806;2024-02-21T04:01:32;10.10;52.70
4354;DHT22;11018;51.258;6.806;2024-02-21T04:03:57;10.10;52.90
4354;DHT22;11018;51.258;6.806;2024-02-21T04:06:23;10.10;52.80
4354;DHT22;11018;51.258;6.806;2024-02-21T04:08:48;10.10;52.90
4354;DHT22;11018;51.258;6.806;2024-02-21T04:11:14;10.10;52.60
4354;DHT22;11018;51.258;6.806;2024-02-21T04:13:39;10.10;52.30
4354;DHT22;11018;51.258;6.806;2024-02-21T04:16:05;10.10;52.50
4354;DHT22;11018;51.258;6.806;2024-02-21T04:18:31;10.10;52.50
4354;DHT22;11018;51.258;6.806;2024-02-21T04:20:57;10.10;52.80
4354;DHT22;11018;51.258;6.806;2024-02-21T04:23:22;10.00;53.00
4354;DHT22;11018;51.258;6.806;2024-02-21T04:25:48;10.10;52.50
4354;DHT22;11018;51.258;6.806;2024-02-21T04:28:13;10.10;52.70
4354;DHT22;11018;51.258;6.806;2024-02-21T04:30:39;10.00;53.10
4354;DHT22;11018;51.258;6.806;2024-02-21T04:33:04;10.10;53.70
4354;DHT22;11018;51.258;6.806;2024-02-21T04:35:30;10.10;52.80
4354;DHT22;11018;51.258;6.806;2024-02-21T04:37:55;10.00;52.90
4354;DHT22;11018;51.258;6.806;2024-02-21T04:40:21;10.10;52.60
4354;DHT22;11018;51.258;6.806;2024-02-21T04:42:46;10.10;52.70
4354;DHT22;11018;51.258;6.806;2024-02-21T04:45:12;10.10;52.80
4354;DHT22;11018;51.258;6.806;2024-02-21T04:47:37;10.10;52.40
4354;DHT22;11018;51.258;6.806;2024-02-21T04:50:03;10.00;52.50
4354;DHT22;11018;51.258;6.806;2024-02-21T04:52:29;10.10;52.50
4354;DHT22;11018;51.258;6.806;2024-02-21T04:54:55;10.10;52.20
4354;DHT22;11018;51.258;6.806;2024-02-21T04:57:21;10.10;52.30
4354;DHT22;11018;51.258;6.806;2024-02-21T04:59:47;10.10;52.30
4354;DHT22;11018;51.258;6.806;2024-02-21T05:02:13;10.00;52.30
4354;DHT22;11018;51.258;6.806;2024-02-21T05:04:39;10.00;52.90
4354;DHT22;11018;51.258;6.806;2024-02-21T05:07:06;10.00;51.90
4354;DHT22;11018;51.258;6.806;2024-02-21T05:09:32;10.10;51.40
4354;DHT22;11018;51.258;6.806;2024-02-21T05:11:57;10.00;52.40
4354;DHT22;11018;51.258;6.806;2024-02-21T05:14:26;10.00;52.00
4354;DHT22;11018;51.258;6.806;2024-02-21T05:16:55;10.00;52.30
4354;DHT22;11018;51.258;6.806;2024-02-21T05:19:21;10.00;51.90
4354;DHT22;11018;51.258;6.806;2024-02-21T05:21:46;10.00;51.60
4354;DHT22;11018;51.258;6.806;2024-02-21T05:24:12;10.00;51.70
4354;DHT22;11018;51.258;6.806;2024-02-21T05:26:38;10.00;51.60
4354;DHT22;11018;51.258;6.806;2024-02-21T05:29:03;10.00;51.10
4354;DHT22;11018;51.258;6.806;2024-02-21T05:34:16;10.00;51.60
4354;DHT22;11018;51.258;6.806;2024-02-21T05:36:42;9.90;51.90
4354;DHT22;11018;51.258;6.806;2024-02-21T05:39:08;9.90;51.70
4354;DHT22;11018;51.258;6.806;2024-02-21T05:41:33;10.00;51.30
4354;DHT22;11018;51.258;6.806;2024-02-21T05:43:59;10.00;51.10
4354;DHT22;11018;51.258;6.806;2024-02-21T05:46:24;10.00;51.10
4354;DHT22;11018;51.258;6.806;2024-02-21T05:48:50;10.00;51.30
4354;DHT22;11018;51.258;6.806;2024-02-21T05:51:15;10.00;51.00
4354;DHT22;11018;51.258;6.806;2024-02-21T05:53:41;10.00;50.80
4354;DHT22;11018;51.258;6.806;2024-02-21T05:56:10;10.10;50.40
4354;DHT22;11018;51.258;6.806;2024-02-21T05:58:37;10.00;50.80
4354;DHT22;11018;51.258;6.806;2024-02-21T06:01:02;10.00;50.70
4354;DHT22;11018;51.258;6.806;2024-02-21T06:03:29;10.00;50.70
4354;DHT22;11018;51.258;6.806;2024-02-21T06:05:54;10.00;50.80
4354;DHT22;11018;51.258;6.806;2024-02-21T06:08:20;10.00;50.40
4354;DHT22;11018;51.258;6.806;2024-02-21T06:10:46;10.00;50.00
4354;DHT22;11018;51.258;6.806;2024-02-21T06:13:12;10.00;50.20
4354;DHT22;11018;51.258;6.806;2024-02-21T06:15:38;10.00;50.40
4354;DHT22;11018;51.258;6.806;2024-02-21T06:18:03;9.90;50.70
4354;DHT22;11018;51.258;6.806;2024-02-21T06:20:29;9.90;50.50
4354;DHT22;11018;51.258;6.806;2024-02-21T06:22:54;9.90;50.40
4354;DHT22;11018;51.258;6.806;2024-02-21T06:25:20;9.90;50.50
4354;DHT22;11018;51.258;6.806;2024-02-21T06:27:45;9.90;50.30
4354;DHT22;11018;51.258;6.806;2024-02-21T06:30:11;10.00;50.00
4354;DHT22;11018;51.258;6.806;2024-02-21T06:32:37;10.00;50.10
4354;DHT22;11018;51.258;6.806;2024-02-21T06:35:04;10.00;49.80
4354;DHT22;11018;51.258;6.806;2024-02-21T06:37:29;10.00;49.60
4354;DHT22;11018;51.258;6.806;2024-02-21T06:39:55;10.10;49.30
4354;DHT22;11018;51.258;6.806;2024-02-21T06:42:21;10.00;49.40
4354;DHT22;11018;51.258;6.806;2024-02-21T06:44:47;10.10;48.80
4354;DHT22;11018;51.258;6.806;2024-02-21T06:47:12;10.20;48.50
4354;DHT22;11018;51.258;6.806;2024-02-21T06:49:38;10.10;48.80
4354;DHT22;11018;51.258;6.806;2024-02-21T06:52:04;10.10;49.20
4354;DHT22;11018;51.258;6.806;2024-02-21T06:54:30;10.00;49.20
4354;DHT22;11018;51.258;6.806;2024-02-21T06:56:56;10.10;49.40
4354;DHT22;11018;51.258;6.806;2024-02-21T06:59:21;10.10;49.50
4354;DHT22;11018;51.258;6.806;2024-02-21T07:01:48;10.10;48.90
4354;DHT22;11018;51.258;6.806;2024-02-21T07:04:14;10.20;48.10
4354;DHT22;11018;51.258;6.806;2024-02-21T07:06:40;10.20;48.00
4354;DHT22;11018;51.258;6.806;2024-02-21T07:09:05;10.10;48.70
4354;DHT22;11018;51.258;6.806;2024-02-21T07:11:31;10.30;47.90
4354;DHT22;11018;51.258;6.806;2024-02-21T07:13:56;10.20;47.80
4354;DHT22;11018;51.258;6.806;2024-02-21T07:16:22;10.20;47.80
4354;DHT22;11018;51.258;6.806;2024-02-21T07:18:48;10.30;47.60
4354;DHT22;11018;51.258;6.806;2024-02-21T07:21:13;10.30;47.40
4354;DHT22;11018;51.258;6.806;2024-02-21T07:23:43;10.40;46.80
4354;DHT22;11018;51.258;6.806;2024-02-21T07:26:08;10.50;46.20
4354;DHT22;11018;51.258;6.806;2024-02-21T07:28:34;10.50;45.90
4354;DHT22;11018;51.258;6.806;2024-02-21T07:31:00;10.40;46.30
4354;DHT22;11018;51.258;6.806;2024-02-21T07:33:25;10.40;46.40
4354;DHT22;11018;51.258;6.806;2024-02-21T07:35:51;10.50;47.00
4354;DHT22;11018;51.258;6.806;2024-02-21T07:38:17;10.50;46.20
4354;DHT22;11018;51.258;6.806;2024-02-21T07:40:46;10.50;46.30
4354;DHT22;11018;51.258;6.806;2024-02-21T07:43:12;10.40;46.50
4354;DHT22;11018;51.258;6.806;2024-02-21T07:45:37;10.50;46.40
4354;DHT22;11018;51.258;6.806;2024-02-21T07:48:05;10.50;46.40
4354;DHT22;11018;51.258;6.806;2024-02-21T07:50:31;10.50;46.80
4354;DHT22;11018;51.258;6.806;2024-02-21T07:52:56;10.40;46.70
4354;DHT22;11018;51.258;6.806;2024-02-21T07:55:22;10.40;47.20
4354;DHT22;11018;51.258;6.806;2024-02-21T07:57:48;10.40;47.80
4354;DHT22;11018;51.258;6.806;2024-02-21T08:00:13;10.30;48.50
4354;DHT22;11018;51.258;6.806;2024-02-21T08:02:48;10.30;48.40
4354;DHT22;11018;51.258;6.806;2024-02-21T08:05:14;10.30;48.70
4354;DHT22;11018;51.258;6.806;2024-02-21T08:07:39;10.30;48.40
4354;DHT22;11018;51.258;6.806;2024-02-21T08:10:05;10.40;48.10
4354;DHT22;11018;51.258;6.806;2024-02-21T08:12:33;10.50;47.50
4354;DHT22;11018;51.258;6.806;2024-02-21T08:14:59;10.40;47.00
4354;DHT22;11018;51.258;6.806;2024-02-21T08:17:25;10.40;47.20
4354;DHT22;11018;51.258;6.806;2024-02-21T08:19:50;10.50;46.80
4354;DHT22;11018;51.258;6.806;2024-02-21T08:22:16;10.40;46.60
4354;DHT22;11018;51.258;6.806;2024-02-21T08:24:41;10.40;47.00
4354;DHT22;11018;51.258;6.806;2024-02-21T08:27:07;10.50;46.10
4354;DHT22;11018;51.258;6.806;2024-02-21T08:29:33;10.50;46.00
4354;DHT22;11018;51.258;6.806;2024-02-21T08:31:58;10.60;45.40
4354;DHT22;11018;51.258;6.806;2024-02-21T08:34:24;10.50;45.10
4354;DHT22;11018;51.258;6.806;2024-02-21T08:36:49;10.50;44.90
4354;DHT22;11018;51.258;6.806;2024-02-21T08:39:15;10.40;44.90
4354;DHT22;11018;51.258;6.806;2024-02-21T08:41:43;10.40;44.60
4354;DHT22;11018;51.258;6.806;2024-02-21T08:44:09;10.40;45.10
4354;DHT22;11018;51.258;6.806;2024-02-21T08:46:35;10.40;45.30
4354;DHT22;11018;51.258;6.806;2024-02-21T08:49:03;10.40;44.80
4354;DHT22;11018;51.258;6.806;2024-02-21T08:51:29;10.40;44.90
4354;DHT22;11018;51.258;6.806;2024-02-21T08:53:54;10.50;44.60
4354;DHT22;11018;51.258;6.806;2024-02-21T08:56:20;10.60;44.10
4354;DHT22;11018;51.258;6.806;2024-02-21T08:58:46;10.70;42.90
4354;DHT22;11018;51.258;6.806;2024-02-21T09:01:12;10.80;42.80
4354;DHT22;11018;51.258;6.806;2024-02-21T09:03:38;10.70;43.00
4354;DHT22;11018;51.258;6.806;2024-02-21T09:06:05;10.80;42.50
4354;DHT22;11018;51.258;6.806;2024-02-21T09:08:31;10.80;42.00
4354;DHT22;11018;51.258;6.806;2024-02-21T09:10:57;10.80;42.20
4354;DHT22;11018;51.258;6.806;2024-02-21T09:13:23;10.90;42.10
4354;DHT22;11018;51.258;6.806;2024-02-21T09:15:49;10.90;42.20
4354;DHT22;11018;51.258;6.806;2024-02-21T09:18:15;10.90;42.40
4354;DHT22;11018;51.258;6.806;2024-02-21T09:20:42;11.00;42.00
4354;DHT22;11018;51.258;6.806;2024-02-21T09:23:07;11.20;41.40
4354;DHT22;11018;51.258;6.806;2024-02-21T09:25:33;11.40;39.90
4354;DHT22;11018;51.258;6.806;2024-02-21T09:28:00;11.40;39.60
4354;DHT22;11018;51.258;6.806;2024-02-21T09:30:26;11.60;39.30
4354;DHT22;11018;51.258;6.806;2024-02-21T09:32:51;11.50;40.50
4354;DHT22;11018;51.258;6.806;2024-02-21T09:35:18;11.40;40.40
4354;DHT22;11018;51.258;6.806;2024-02-21T09:37:43;11.50;39.70
4354;DHT22;11018;51.258;6.806;2024-02-21T09:40:09;11.60;39.30
4354;DHT22;11018;51.258;6.806;2024-02-21T09:42:40;11.50;39.70
4354;DHT22;11018;51.258;6.806;2024-02-21T09:45:09;11.60;39.60
4354;DHT22;11018;51.258;6.806;2024-02-21T09:50:30;11.80;37.80
4354;DHT22;11018;51.258;6.806;2024-02-21T09:52:58;11.80;37.70
4354;DHT22;11018;51.258;6.806;2024-02-21T09:55:26;11.90;37.10
4354;DHT22;11018;51.258;6.806;2024-02-21T09:57:53;11.80;36.30
4354;DHT22;11018;51.258;6.806;2024-02-21T10:00:19;11.70;36.60
4354;DHT22;11018;51.258;6.806;2024-02-21T10:02:48;11.70;36.00
4354;DHT22;11018;51.258;6.806;2024-02-21T10:05:14;11.70;36.50
4354;DHT22;11018;51.258;6.806;2024-02-21T10:07:40;11.70;36.20
4354;DHT22;11018;51.258;6.806;2024-02-21T10:10:06;11.70;36.20
4354;DHT22;11018;51.258;6.806;2024-02-21T10:12:32;11.90;35.40
4354;DHT22;11018;51.258;6.806;2024-02-21T10:15:05;12.10;34.80
4354;DHT22;11018;51.258;6.806;2024-02-21T10:17:34;12.00;34.80
4354;DHT22;11018;51.258;6.806;2024-02-21T10:20:10;12.00;34.90
4354;DHT22;11018;51.258;6.806;2024-02-21T10:22:37;12.10;34.40
4354;DHT22;11018;51.258;6.806;2024-02-21T10:25:14;12.20;33.80
4354;DHT22;11018;51.258;6.806;2024-02-21T10:27:40;12.40;33.80
4354;DHT22;11018;51.258;6.806;2024-02-21T10:30:08;12.30;32.80
4354;DHT22;11018;51.258;6.806;2024-02-21T10:32:54;12.40;33.00
4354;DHT22;11018;51.258;6.806;2024-02-21T10:35:30;12.40;32.30
4354;DHT22;11018;51.258;6.806;2024-02-21T10:37:57;12.30;32.60
4354;DHT22;11018;51.258;6.806;2024-02-21T10:40:24;12.40;32.50
4354;DHT22;11018;51.258;6.806;2024-02-21T10:42:54;12.60;31.80
4354;DHT22;11018;51.258;6.806;2024-02-21T10:45:23;12.50;31.90
4354;DHT22;11018;51.258;6.806;2024-02-21T10:47:55;12.50;32.10
4354;DHT22;11018;51.258;6.806;2024-02-21T10:50:24;12.50;31.90
4354;DHT22;11018;51.258;6.806;2024-02-21T10:55:58;12.50;31.90
4354;DHT22;11018;51.258;6.806;2024-02-21T10:58:29;12.50;31.80
4354;DHT22;11018;51.258;6.806;2024-02-21T11:00:55;12.50;31.80
4354;DHT22;11018;51.258;6.806;2024-02-21T11:03:21;12.40;31.90
4354;DHT22;11018;51.258;6.806;2024-02-21T11:05:47;12.40;32.20
4354;DHT22;11018;51.258;6.806;2024-02-21T11:08:14;12.50;32.00
4354;DHT22;11018;51.258;6.806;2024-02-21T11:10:39;12.60;32.60
4354;DHT22;11018;51.258;6.806;2024-02-21T11:13:09;12.80;32.10
4354;DHT22;11018;51.258;6.806;2024-02-21T11:15:35;13.00;31.80
4354;DHT22;11018;51.258;6.806;2024-02-21T11:18:00;13.10;31.00
4354;DHT22;11018;51.258;6.806;2024-02-21T11:20:33;13.30;30.90
4354;DHT22;11018;51.258;6.806;2024-02-21T11:23:02;13.30;30.30
4354;DHT22;11018;51.258;6.806;2024-02-21T11:25:28;13.30;29.70
4354;DHT22;11018;51.258;6.806;2024-02-21T11:28:00;13.30;30.90
4354;DHT22;11018;51.258;6.806;2024-02-21T11:30:36;13.30;29.60
4354;DHT22;11018;51.258;6.806;2024-02-21T11:33:03;13.00;30.40
4354;DHT22;11018;51.258;6.806;2024-02-21T11:35:32;13.10;30.50
4354;DHT22;11018;51.258;6.806;2024-02-21T11:38:10;13.20;29.90
4354;DHT22;11018;51.258;6.806;2024-02-21T11:40:40;13.20;30.60
4354;DHT22;11018;51.258;6.806;2024-02-21T11:43:06;13.10;30.70
4354;DHT22;11018;51.258;6.806;2024-02-21T11:45:32;13.00;30.70
4354;DHT22;11018;51.258;6.806;2024-02-21T11:47:59;13.00;30.50
4354;DHT22;11018;51.258;6.806;2024-02-21T11:50:26;13.10;30.40
4354;DHT22;11018;51.258;6.806;2024-02-21T11:52:54;13.20;29.20
4354;DHT22;11018;51.258;6.806;2024-02-21T11:55:20;13.10;30.20
4354;DHT22;11018;51.258;6.806;2024-02-21T11:57:47;13.20;29.70
4354;DHT22;11018;51.258;6.806;2024-02-21T12:00:20;12.90;29.70
4354;DHT22;11018;51.258;6.806;2024-02-21T12:02:46;12.90;29.30
4354;DHT22;11018;51.258;6.806;2024-02-21T12:05:12;13.00;29.60
4354;DHT22;11018;51.258;6.806;2024-02-21T12:07:38;12.90;30.80
4354;DHT22;11018;51.258;6.806;2024-02-21T12:10:13;13.00;30.00
4354;DHT22;11018;51.258;6.806;2024-02-21T12:12:39;12.80;29.70
4354;DHT22;11018;51.258;6.806;2024-02-21T12:15:07;13.00;29.20
4354;DHT22;11018;51.258;6.806;2024-02-21T12:17:34;13.00;29.90
4354;DHT22;11018;51.258;6.806;2024-02-21T12:20:06;12.90;29.50
4354;DHT22;11018;51.258;6.806;2024-02-21T12:22:35;13.00;29.40
4354;DHT22;11018;51.258;6.806;2024-02-21T12:25:15;13.20;29.70
4354;DHT22;11018;51.258;6.806;2024-02-21T12:27:43;13.50;28.50
4354;DHT22;11018;51.258;6.806;2024-02-21T12:30:09;13.70;27.60
4354;DHT22;11018;51.258;6.806;2024-02-21T12:32:35;13.90;26.60
4354;DHT22;11018;51.258;6.806;2024-02-21T12:35:01;14.00;26.70
4354;DHT22;11018;51.258;6.806;2024-02-21T12:37:28;13.90;26.70
4354;DHT22;11018;51.258;6.806;2024-02-21T12:39:54;13.70;27.40
4354;DHT22;11018;51.258;6.806;2024-02-21T12:42:19;13.70;26.60
4354;DHT22;11018;51.258;6.806;2024-02-21T12:44:45;13.70;27.20
4354;DHT22;11018;51.258;6.806;2024-02-21T12:47:11;13.80;27.40
4354;DHT22;11018;51.258;6.806;2024-02-21T12:49:37;13.90;26.00
4354;DHT22;11018;51.258;6.806;2024-02-21T12:52:03;14.00;25.80
4354;DHT22;11018;51.258;6.806;2024-02-21T12:54:29;14.00;26.40
4354;DHT22;11018;51.258;6.806;2024-02-21T12:56:55;14.00;26.20
4354;DHT22;11018;51.258;6.806;2024-02-21T12:59:21;14.00;26.50
4354;DHT22;11018;51.258;6.806;2024-02-21T13:01:47;14.10;25.90
4354;DHT22;11018;51.258;6.806;2024-02-21T13:04:12;14.10;25.90
4354;DHT22;11018;51.258;6.806;2024-02-21T13:06:38;14.30;25.70
4354;DHT22;11018;51.258;6.806;2024-02-21T13:09:03;14.20;25.20
4354;DHT22;11018;51.258;6.806;2024-02-21T13:11:34;14.20;26.10
4354;DHT22;11018;51.258;6.806;2024-02-21T13:13:59;14.20;25.70
4354;DHT22;11018;51.258;6.806;2024-02-21T13:16:25;14.30;25.50
4354;DHT22;11018;51.258;6.806;2024-02-21T13:18:51;14.10;25.70
4354;DHT22;11018;51.258;6.806;2024-02-21T13:21:17;13.90;26.50
4354;DHT22;11018;51.258;6.806;2024-02-21T13:23:42;14.20;26.30
4354;DHT22;11018;51.258;6.806;2024-02-21T13:26:09;14.30;25.40
4354;DHT22;11018;51.258;6.806;2024-02-21T13:28:35;14.50;26.00
4354;DHT22;11018;51.258;6.806;2024-02-21T13:31:01;14.50;25.60
4354;DHT22;11018;51.258;6.806;2024-02-21T13:33:26;14.60;25.10
4354;DHT22;11018;51.258;6.806;2024-02-21T13:35:53;14.70;24.40
4354;DHT22;11018;51.258;6.806;2024-02-21T13:38:19;14.60;24.30
4354;DHT22;11018;51.258;6.806;2024-02-21T13:40:44;14.60;24.50
4354;DHT22;11018;51.258;6.806;2024-02-21T13:43:10;14.30;25.00
4354;DHT22;11018;51.258;6.806;2024-02-21T13:45:36;14.40;25.80
4354;DHT22;11018;51.258;6.806;2024-02-21T13:48:02;14.10;25.60
4354;DHT22;11018;51.258;6.806;2024-02-21T13:50:30;14.00;26.40
4354;DHT22;11018;51.258;6.806;2024-02-21T13:52:57;14.00;26.70
4354;DHT22;11018;51.258;6.806;2024-02-21T13:55:22;13.90;26.50
4354;DHT22;11018;51.258;6.806;2024-02-21T13:57:51;13.90;26.60
4354;DHT22;11018;51.258;6.806;2024-02-21T14:00:17;13.80;26.80
4354;DHT22;11018;51.258;6.806;2024-02-21T14:02:43;13.80;26.30
4354;DHT22;11018;51.258;6.806;2024-02-21T14:05:09;13.80;26.50
4354;DHT22;11018;51.258;6.806;2024-02-21T14:07:35;13.90;26.60
4354;DHT22;11018;51.258;6.806;2024-02-21T14:10:01;13.90;26.80
4354;DHT22;11018;51.258;6.806;2024-02-21T14:12:26;14.00;26.30
4354;DHT22;11018;51.258;6.806;2024-02-21T14:14:52;14.00;26.10
4354;DHT22;11018;51.258;6.806;2024-02-21T14:17:18;14.00;26.70
4354;DHT22;11018;51.258;6.806;2024-02-21T14:19:44;14.00;26.50
4354;DHT22;11018;51.258;6.806;2024-02-21T14:22:10;14.30;26.10
4354;DHT22;11018;51.258;6.806;2024-02-21T14:24:36;14.20;25.90
4354;DHT22;11018;51.258;6.806;2024-02-21T14:27:02;14.30;25.30
4354;DHT22;11018;51.258;6.806;2024-02-21T14:29:29;14.10;26.30
4354;DHT22;11018;51.258;6.806;2024-02-21T14:31:54;14.10;25.50
4354;DHT22;11018;51.258;6.806;2024-02-21T14:34:20;14.10;26.00
4354;DHT22;11018;51.258;6.806;2024-02-21T14:36:45;14.10;25.80
4354;DHT22;11018;51.258;6.806;2024-02-21T14:39:11;14.10;25.50
4354;DHT22;11018;51.258;6.806;2024-02-21T14:41:37;14.10;25.80
4354;DHT22;11018;51.258;6.806;2024-02-21T14:44:02;14.10;25.70
4354;DHT22;11018;51.258;6.806;2024-02-21T14:46:29;14.10;25.80
4354;DHT22;11018;51.258;6.806;2024-02-21T14:48:55;14.20;25.70
4354;DHT22;11018;51.258;6.806;2024-02-21T14:51:20;14.10;25.90
4354;DHT22;11018;51.258;6.806;2024-02-21T14:53:46;14.00;25.80
4354;DHT22;11018;51.258;6.806;2024-02-21T14:56:18;14.00;25.90
4354;DHT22;11018;51.258;6.806;2024-02-21T14:58:44;13.80;26.80
4354;DHT22;11018;51.258;6.806;2024-02-21T15:01:09;13.70;26.60
4354;DHT22;11018;51.258;6.806;2024-02-21T15:03:35;13.80;27.10
4354;DHT22;11018;51.258;6.806;2024-02-21T15:06:01;13.70;27.30
4354;DHT22;11018;51.258;6.806;2024-02-21T15:08:27;13.70;27.40
4354;DHT22;11018;51.258;6.806;2024-02-21T15:10:53;13.60;27.50
4354;DHT22;11018;51.258;6.806;2024-02-21T15:13:19;13.60;27.80
4354;DHT22;11018;51.258;6.806;2024-02-21T15:15:45;13.50;28.50
4354;DHT22;11018;51.258;6.806;2024-02-21T15:18:13;13.40;28.30
4354;DHT22;11018;51.258;6.806;2024-02-21T15:20:40;13.20;29.70
4354;DHT22;11018;51.258;6.806;2024-02-21T15:23:06;13.10;30.00
4354;DHT22;11018;51.258;6.806;2024-02-21T15:25:31;13.10;29.40
4354;DHT22;11018;51.258;6.806;2024-02-21T15:27:57;13.10;29.30
4354;DHT22;11018;51.258;6.806;2024-02-21T15:30:23;13.00;30.10
4354;DHT22;11018;51.258;6.806;2024-02-21T15:32:48;13.00;30.10
4354;DHT22;11018;51.258;6.806;2024-02-21T15:35:14;13.00;30.00
4354;DHT22;11018;51.258;6.806;2024-02-21T15:37:40;13.00;30.30
4354;DHT22;11018;51.258;6.806;2024-02-21T15:40:06;12.80;31.10
4354;DHT22;11018;51.258;6.806;2024-02-21T15:42:34;12.80;31.20
4354;DHT22;11018;51.258;6.806;2024-02-21T15:44:59;12.90;30.50
4354;DHT22;11018;51.258;6.806;2024-02-21T15:47:30;12.80;31.00
4354;DHT22;11018;51.258;6.806;2024-02-21T15:49:57;12.70;31.30